Time;durP1;ratioP1;P1;durP2;ratioP2;P2;SDS_P1;SDS_P2;PMS_P1;PMS_P2;Temp;Humidity;BMP_temperature;BMP_pressure;BME280_temperature;BME280_humidity;BME280_pressure;Samples;Min_cycle;Max_cycle;Signal;HPM_P1;HPM_P2
2022/12/02 00:04:55;;;;;;;7.55;3.85;;;18.40;60.20;;;;;;10466170;28;20168;-30
2022/12/02 00:09:57;;;;;;;6.70;4.25;;;18.40;60.10;;;;;;10474374;28;20132;-30
2022/12/02 00:15:02;;;;;;;7.95;4.20;;;18.40;60.00;;;;;;10465110;28;20084;-29
2022/12/02 00:20:07;;;;;;;6.63;4.55;;;18.40;60.10;;;;;;10470566;28;20041;-30
2022/12/02 00:25:09;;;;;;;7.28;4.07;;;18.40;60.10;;;;;;10474195;28;20067;-28
2022/12/02 00:30:12;;;;;;;6.32;4.28;;;18.30;60.10;;;;;;10498330;28;20098;-30
2022/12/02 00:35:15;;;;;;;5.78;4.35;;;18.40;60.10;;;;;;10499108;28;20141;-31
2022/12/02 00:40:18;;;;;;;7.43;4.45;;;18.30;60.20;;;;;;10503826;28;20072;-29
2022/12/02 00:50:40;;;;;;;6.80;4.10;;;18.30;60.10;;;;;;10503531;28;19924;-37
2022/12/02 00:55:42;;;;;;;8.02;3.95;;;18.30;60.10;;;;;;10509638;28;20463;-29
2022/12/02 01:00:44;;;;;;;4.93;3.77;;;18.30;60.00;;;;;;10511707;28;20126;-29
2022/12/02 01:05:47;;;;;;;5.45;4.15;;;18.30;60.70;;;;;;10497623;28;20871;-31
2022/12/02 01:10:49;;;;;;;6.22;4.50;;;18.30;59.90;;;;;;10498488;28;20080;-32
2022/12/02 01:15:51;;;;;;;6.95;4.20;;;18.30;59.80;;;;;;10503805;28;20067;-30
2022/12/02 01:20:54;;;;;;;8.13;4.55;;;18.20;60.20;;;;;;10489620;28;20048;-27
2022/12/02 01:25:56;;;;;;;6.28;4.28;;;18.20;60.10;;;;;;10477650;28;20048;-32
2022/12/02 01:30:58;;;;;;;6.80;4.20;;;18.20;60.00;;;;;;10475978;28;20158;-30
2022/12/02 01:36:01;;;;;;;6.38;4.60;;;18.20;60.10;;;;;;10480454;28;20057;-30
2022/12/02 01:41:04;;;;;;;6.43;4.45;;;18.20;60.10;;;;;;10478139;28;20045;-30
2022/12/02 01:46:07;;;;;;;8.27;4.85;;;18.20;60.10;;;;;;10484006;28;20079;-30
2022/12/02 01:51:10;;;;;;;7.28;4.72;;;18.20;60.20;;;;;;10486292;28;20482;-31
2022/12/02 01:56:12;;;;;;;8.48;4.38;;;18.20;60.10;;;;;;10486407;28;20648;-30
2022/12/02 02:01:25;;;;;;;11.40;5.55;;;18.20;60.00;;;;;;10472203;28;20092;-30
2022/12/02 02:06:32;;;;;;;8.00;5.10;;;18.20;60.00;;;;;;10482024;28;20056;-30
2022/12/02 02:11:34;;;;;;;8.98;5.07;;;18.20;60.00;;;;;;10486555;28;20126;-31
2022/12/02 02:16:37;;;;;;;8.35;4.75;;;18.20;60.10;;;;;;10474210;28;20080;-29
2022/12/02 02:21:48;;;;;;;7.55;5.55;;;18.20;60.00;;;;;;10483468;28;20108;-29
2022/12/02 02:26:52;;;;;;;7.70;4.78;;;18.20;60.00;;;;;;10482867;28;20052;-31
2022/12/02 02:31:54;;;;;;;10.50;5.72;;;18.10;60.00;;;;;;10490566;28;20064;-31
2022/12/02 02:36:56;;;;;;;9.20;5.28;;;18.20;60.00;;;;;;10480051;28;20088;-32
2022/12/02 02:41:59;;;;;;;9.40;5.93;;;18.20;60.00;;;;;;10481852;28;20076;-31
2022/12/02 02:47:01;;;;;;;8.40;5.43;;;18.20;59.90;;;;;;10486763;28;20149;-30
2022/12/02 02:52:03;;;;;;;9.48;5.55;;;18.10;60.00;;;;;;10483643;28;20080;-31
2022/12/02 02:57:09;;;;;;;11.38;6.78;;;18.10;60.10;;;;;;10475166;28;20061;-30
2022/12/02 03:02:13;;;;;;;10.05;5.97;;;18.10;60.60;;;;;;10475860;28;20115;-31
2022/12/02 03:07:15;;;;;;;9.68;5.90;;;18.10;60.00;;;;;;10479829;28;20445;-32
2022/12/02 03:12:19;;;;;;;10.40;6.30;;;18.10;60.00;;;;;;10477558;28;20139;-30
2022/12/02 03:17:21;;;;;;;9.80;6.00;;;18.10;60.00;;;;;;10476701;28;20151;-29
2022/12/02 03:22:23;;;;;;;9.32;6.50;;;18.10;60.00;;;;;;10505228;28;20079;-32
2022/12/02 03:27:27;;;;;;;11.30;6.82;;;18.10;59.80;;;;;;10496283;28;20037;-30
2022/12/02 03:32:29;;;;;;;10.77;6.68;;;18.10;59.80;;;;;;10513765;28;20883;-31
2022/12/02 03:37:31;;;;;;;10.20;7.07;;;18.10;60.00;;;;;;10506429;28;20403;-30
2022/12/02 03:42:34;;;;;;;10.25;7.28;;;18.10;60.00;;;;;;10498543;28;20094;-30
2022/12/02 03:47:36;;;;;;;12.85;7.13;;;18.10;60.00;;;;;;10513731;28;20485;-32
2022/12/02 03:52:39;;;;;;;12.20;7.38;;;18.10;59.90;;;;;;10501499;28;20036;-30
2022/12/02 03:57:42;;;;;;;12.15;7.65;;;18.10;59.90;;;;;;10510840;28;20056;-33
2022/12/02 04:02:44;;;;;;;14.02;8.30;;;18.10;59.80;;;;;;10494884;28;20477;-31
2022/12/02 04:07:46;;;;;;;11.80;7.53;;;18.00;59.80;;;;;;10505387;28;20569;-31
2022/12/02 04:12:49;;;;;;;13.23;7.63;;;18.00;60.00;;;;;;10496965;28;20103;-31
2022/12/02 04:17:50;;;;;;;13.10;8.60;;;18.00;59.80;;;;;;10490761;28;20064;-29
2022/12/02 04:22:52;;;;;;;15.60;8.67;;;18.10;59.80;;;;;;10510921;28;20075;-31
2022/12/02 04:27:55;;;;;;;18.07;8.47;;;18.10;59.80;;;;;;10498107;28;20069;-32
2022/12/02 04:32:57;;;;;;;15.32;9.23;;;18.00;59.90;;;;;;10490011;28;20045;-30
2022/12/02 04:37:59;;;;;;;15.67;8.40;;;18.00;59.90;;;;;;10489368;28;20139;-30
2022/12/02 04:43:02;;;;;;;15.40;8.97;;;18.00;59.80;;;;;;10505088;28;20052;-32
2022/12/02 04:48:04;;;;;;;12.57;8.77;;;18.00;59.80;;;;;;10485264;28;20090;-30
2022/12/02 04:53:06;;;;;;;15.43;8.65;;;18.00;59.80;;;;;;10496746;28;20048;-30
2022/12/02 04:58:09;;;;;;;13.33;9.20;;;18.00;59.80;;;;;;10503111;28;20125;-29
2022/12/02 05:03:10;;;;;;;14.35;8.77;;;17.90;59.70;;;;;;10504341;28;20364;-30
2022/12/02 05:08:12;;;;;;;17.67;9.40;;;17.90;59.70;;;;;;10484582;28;20082;-33
2022/12/02 05:13:15;;;;;;;15.07;8.63;;;17.90;60.30;;;;;;10489471;28;20048;-33
2022/12/02 05:18:17;;;;;;;15.38;9.35;;;17.90;59.70;;;;;;10472775;28;20516;-30
2022/12/02 05:23:19;;;;;;;18.10;10.00;;;17.90;59.80;;;;;;10461858;28;20466;-31
2022/12/02 05:28:22;;;;;;;18.10;9.60;;;17.90;59.80;;;;;;10464267;28;20316;-32
2022/12/02 05:33:23;;;;;;;15.63;9.45;;;17.90;59.60;;;;;;10460186;28;20045;-32
2022/12/02 05:38:25;;;;;;;14.10;8.33;;;17.90;59.70;;;;;;10483607;28;20147;-28
2022/12/02 05:43:32;;;;;;;15.20;9.27;;;17.80;59.70;;;;;;10489668;28;20128;-29
2022/12/02 05:48:34;;;;;;;14.73;8.88;;;17.90;59.80;;;;;;10465413;28;20084;-29
2022/12/02 05:53:38;;;;;;;15.10;8.65;;;17.90;59.70;;;;;;10492831;28;20048;-33
2022/12/02 05:58:41;;;;;;;16.20;9.32;;;18.10;59.70;;;;;;10471484;28;20136;-30
2022/12/02 06:03:43;;;;;;;16.25;9.45;;;18.10;59.60;;;;;;10468003;28;20449;-30
2022/12/02 06:08:45;;;;;;;14.07;8.52;;;18.10;59.60;;;;;;10468036;28;20056;-30
2022/12/02 06:13:48;;;;;;;14.98;9.18;;;18.20;59.40;;;;;;10477043;28;20522;-31
2022/12/02 06:18:50;;;;;;;14.32;9.13;;;18.30;59.40;;;;;;10486263;28;20059;-31
2022/12/02 06:23:55;;;;;;;16.52;8.95;;;18.30;59.40;;;;;;10484933;28;20132;-29
2022/12/02 06:29:02;;;;;;;17.63;8.82;;;18.30;59.40;;;;;;10483461;28;20135;-30
2022/12/02 06:34:20;;;;;;;15.65;8.98;;;18.40;59.20;;;;;;10472640;28;20107;-30
2022/12/02 06:39:23;;;;;;;14.70;8.65;;;18.40;59.30;;;;;;10483422;28;20058;-30
2022/12/02 06:49:46;;;;;;;16.15;9.13;;;18.40;59.20;;;;;;10473075;28;20048;-31
2022/12/02 06:54:49;;;;;;;19.52;8.35;;;18.40;59.10;;;;;;10458904;28;20119;-30
2022/12/02 06:59:52;;;;;;;;;;;18.40;59.20;;;;;;10466954;28;20139;-32
2022/12/02 07:15:29;;;;;;;11.82;7.15;;;18.50;58.50;;;;;;10463206;27;2008802;-30
2022/12/02 07:20:34;;;;;;;12.98;7.28;;;18.50;59.00;;;;;;10494397;28;20041;-31
2022/12/02 07:25:38;;;;;;;14.95;8.13;;;18.50;58.90;;;;;;10491375;28;20382;-32
2022/12/02 07:30:42;;;;;;;12.02;6.85;;;18.50;58.90;;;;;;10496961;28;20049;-28
2022/12/02 07:35:44;;;;;;;12.00;7.30;;;18.60;58.90;;;;;;10510054;28;20099;-31
2022/12/02 07:40:46;;;;;;;12.18;7.07;;;18.60;58.80;;;;;;10518203;28;20049;-30
2022/12/02 07:45:50;;;;;;;;;;;18.50;58.90;;;;;;10521700;28;20374;-31
2022/12/02 07:50:51;;;;;;;12.93;7.15;;;18.50;59.10;;;;;;10511975;28;20151;-30
2022/12/02 07:55:53;;;;;;;11.35;6.13;;;18.50;59.30;;;;;;10509328;28;20066;-30
2022/12/02 08:00:56;;;;;;;11.63;6.30;;;18.40;59.40;;;;;;10499051;28;20074;-30
2022/12/02 08:05:58;;;;;;;12.85;6.53;;;18.40;59.40;;;;;;10506003;28;20098;-31
2022/12/02 08:11:00;;;;;;;12.20;7.25;;;18.50;59.10;;;;;;10510208;28;20153;-30
2022/12/02 08:16:03;;;;;;;19.17;7.03;;;18.30;59.50;;;;;;10513150;28;20128;-31
2022/12/02 08:21:05;;;;;;;12.05;6.95;;;18.30;59.70;;;;;;10507730;28;20056;-31
2022/12/02 08:26:07;;;;;;;11.20;6.90;;;18.20;60.10;;;;;;10481895;28;20045;-31
2022/12/02 08:31:10;;;;;;;19.33;8.95;;;18.30;59.50;;;;;;10480958;28;20140;-34
2022/12/02 08:36:14;;;;;;;13.60;7.15;;;18.30;59.40;;;;;;10475623;28;20069;-34
2022/12/02 08:41:16;;;;;;;15.98;7.05;;;18.30;59.40;;;;;;10474203;28;20460;-32
2022/12/02 08:46:19;;;;;;;14.95;7.00;;;18.20;59.60;;;;;;10477411;28;20110;-30
2022/12/02 08:51:21;;;;;;;16.48;6.07;;;18.20;59.40;;;;;;10476500;28;20057;-31
2022/12/02 08:56:23;;;;;;;9.52;5.78;;;18.30;59.30;;;;;;10487586;28;20067;-31
2022/12/02 09:01:26;;;;;;;11.48;6.93;;;18.30;59.30;;;;;;10476406;28;20201;-30
2022/12/02 09:06:28;;;;;;;15.52;7.63;;;18.20;59.40;;;;;;10481812;28;20553;-33
2022/12/02 09:11:30;;;;;;;11.55;5.85;;;18.20;59.30;;;;;;10492348;28;20151;-30
2022/12/02 09:16:33;;;;;;;15.13;6.47;;;18.20;59.20;;;;;;10481874;28;20077;-29
2022/12/02 09:21:35;;;;;;;20.17;7.78;;;18.20;59.20;;;;;;10485207;28;20139;-29
2022/12/02 09:26:36;;;;;;;12.17;5.73;;;18.20;58.90;;;;;;10482610;28;20448;-31
2022/12/02 09:31:40;;;;;;;11.05;6.47;;;18.20;59.10;;;;;;10475052;28;20556;-34
2022/12/02 09:36:41;;;;;;;11.13;6.32;;;18.10;59.10;;;;;;10489834;28;20476;-30
2022/12/02 09:41:43;;;;;;;10.60;5.43;;;18.10;59.00;;;;;;10476492;28;20488;-29
2022/12/02 09:46:47;;;;;;;11.00;5.97;;;18.10;58.90;;;;;;10473820;28;20188;-30
2022/12/02 09:51:49;;;;;;;10.15;5.15;;;18.10;58.90;;;;;;10481767;28;21059;-30
2022/12/02 09:56:51;;;;;;;11.35;5.82;;;18.10;59.00;;;;;;10476264;28;20491;-32
2022/12/02 10:01:57;;;;;;;12.17;6.23;;;18.10;58.80;;;;;;10476288;28;20523;-30
2022/12/02 10:06:59;;;;;;;8.50;5.00;;;18.10;58.70;;;;;;10490424;28;20477;-32
2022/12/02 10:12:01;;;;;;;14.77;5.77;;;18.10;58.70;;;;;;10487325;28;20092;-31
2022/12/02 10:17:14;;;;;;;11.95;6.00;;;18.10;58.60;;;;;;10476552;28;20847;-30
2022/12/02 10:22:19;;;;;;;7.75;4.82;;;18.10;58.80;;;;;;10484644;28;20457;-31
2022/12/02 10:27:25;;;;;;;8.82;5.03;;;18.10;58.50;;;;;;10466142;28;20055;-29
2022/12/02 10:32:28;;;;;;;10.68;5.00;;;18.10;58.40;;;;;;10476606;28;20044;-32
2022/12/02 10:37:33;;;;;;;8.50;4.90;;;18.00;58.30;;;;;;10481567;28;20051;-30
2022/12/02 10:42:35;;;;;;;13.35;5.50;;;18.10;58.50;;;;;;10484238;28;20436;-30
2022/12/02 10:47:38;;;;;;;8.85;5.10;;;18.00;58.30;;;;;;10481997;28;20146;-34
2022/12/02 10:52:46;;;;;;;8.73;4.78;;;18.00;58.50;;;;;;10481903;28;20042;-33
2022/12/02 10:57:49;;;;;;;8.05;4.45;;;18.00;58.20;;;;;;10481319;28;20098;-32
2022/12/02 11:02:55;;;;;;;10.52;4.75;;;18.00;58.10;;;;;;10477662;28;20049;-36
2022/12/02 11:07:59;;;;;;;9.15;4.40;;;18.00;58.10;;;;;;10484599;28;20052;-33
2022/12/02 11:13:48;;;;;;;7.95;3.92;;;18.00;58.10;;;;;;10483962;28;20063;-32
2022/12/02 11:18:55;;;;;;;9.65;4.60;;;18.00;58.10;;;;;;10481466;28;20484;-31
2022/12/02 11:24:30;;;;;;;6.18;3.60;;;18.00;58.20;;;;;;10473673;28;20072;-32
2022/12/02 11:29:36;;;;;;;9.20;4.15;;;17.90;58.40;;;;;;10480964;28;20070;-33
2022/12/02 11:34:43;;;;;;;9.82;4.93;;;17.90;58.20;;;;;;10477753;28;20098;-30
2022/12/02 11:39:45;;;;;;;10.90;4.10;;;18.00;58.00;;;;;;10471428;28;20052;-30
2022/12/02 11:44:48;;;;;;;10.13;3.97;;;18.00;58.10;;;;;;10468671;28;20502;-33
2022/12/02 11:49:50;;;;;;;7.55;3.88;;;18.00;57.90;;;;;;10469487;28;20087;-31
2022/12/02 11:55:09;;;;;;;7.75;4.05;;;18.00;57.80;;;;;;10478763;28;20098;-32
2022/12/02 12:00:26;;;;;;;7.38;3.85;;;17.90;57.70;;;;;;10480047;28;20055;-34
2022/12/02 12:05:28;;;;;;;7.95;3.70;;;17.90;57.80;;;;;;10481570;28;20854;-29
2022/12/02 12:10:32;;;;;;;8.70;3.77;;;17.90;57.70;;;;;;10494520;28;20041;-32
2022/12/02 12:15:55;;;;;;;8.02;3.97;;;17.90;57.90;;;;;;10492535;28;20498;-34
2022/12/02 12:20:56;;;;;;;;;;;18.00;57.50;;;;;;10478549;28;20121;-30
2022/12/02 12:25:59;;;;;;;5.82;4.15;;;17.90;57.60;;;;;;10473998;28;20034;-29
2022/12/02 12:31:03;;;;;;;10.73;3.92;;;17.80;57.80;;;;;;10482122;28;20171;-31
2022/12/02 12:36:05;;;;;;;10.45;4.68;;;17.90;57.20;;;;;;10474574;28;20068;-32
2022/12/02 12:41:07;;;;;;;6.45;4.20;;;17.90;57.10;;;;;;10473316;28;20076;-31
2022/12/02 12:46:10;;;;;;;9.77;4.43;;;17.90;57.90;;;;;;10470292;28;20045;-31
2022/12/02 12:51:12;;;;;;;14.25;6.10;;;18.00;57.70;;;;;;10466163;28;21063;-30
2022/12/02 12:56:14;;;;;;;11.17;5.77;;;18.00;58.10;;;;;;10471475;28;20087;-33
2022/12/02 13:01:17;;;;;;;11.00;6.10;;;18.50;56.90;;;;;;10481878;28;20478;-35
2022/12/02 13:06:20;;;;;;;9.10;4.78;;;18.50;56.70;;;;;;10471489;28;20048;-34
2022/12/02 13:11:22;;;;;;;9.57;4.55;;;18.80;56.50;;;;;;10481867;28;20140;-31
2022/12/02 13:16:25;;;;;;;11.32;5.55;;;18.80;56.30;;;;;;10474389;28;20739;-30
2022/12/02 13:21:27;;;;;;;11.18;5.38;;;19.00;56.20;;;;;;10487638;28;20067;-30
2022/12/02 13:26:29;;;;;;;12.10;5.00;;;18.80;56.50;;;;;;10481285;28;20063;-32
2022/12/02 13:31:32;;;;;;;9.13;4.68;;;18.80;56.50;;;;;;10474889;28;20102;-29
2022/12/02 13:36:34;;;;;;;8.35;4.35;;;18.80;55.70;;;;;;10475393;28;20048;-34
2022/12/02 13:41:36;;;;;;;9.40;4.65;;;18.90;56.40;;;;;;10475269;28;20957;-32
2022/12/02 13:46:39;;;;;;;8.65;4.55;;;18.80;56.40;;;;;;10487086;28;20048;-33
2022/12/02 13:51:41;;;;;;;9.70;4.40;;;18.90;56.20;;;;;;10477847;28;20056;-31
2022/12/02 13:56:42;;;;;;;8.45;4.53;;;18.90;56.10;;;;;;10482235;28;20478;-34
2022/12/02 14:01:46;;;;;;;8.38;4.68;;;18.90;56.10;;;;;;10482236;28;20155;-35
2022/12/02 14:06:50;;;;;;;15.52;4.40;;;18.90;56.20;;;;;;10479320;28;20076;-30
2022/12/02 14:11:51;;;;;;;10.18;4.25;;;18.90;56.20;;;;;;10487552;28;20155;-31
2022/12/02 14:16:55;;;;;;;8.95;4.18;;;19.00;56.00;;;;;;10482257;28;20060;-33
2022/12/02 14:21:56;;;;;;;12.35;4.05;;;18.80;56.30;;;;;;10467738;28;20049;-35
2022/12/02 14:26:58;;;;;;;10.27;4.80;;;18.90;56.20;;;;;;10478701;28;20080;-32
2022/12/02 14:32:01;;;;;;;9.38;4.00;;;18.90;56.10;;;;;;10455722;28;20618;-31
2022/12/02 14:37:03;;;;;;;10.27;4.70;;;18.90;56.10;;;;;;10460052;28;20505;-28
2022/12/02 14:42:05;;;;;;;7.70;4.35;;;18.90;56.00;;;;;;10454347;28;20089;-32
2022/12/02 14:47:08;;;;;;;7.88;4.80;;;18.80;56.10;;;;;;10457452;28;20148;-30
2022/12/02 14:52:10;;;;;;;8.73;4.55;;;18.70;56.20;;;;;;10452238;28;20090;-31
2022/12/02 14:57:14;;;;;;;8.25;4.57;;;18.90;56.00;;;;;;10462906;28;20064;-31
2022/12/02 15:02:17;;;;;;;14.38;4.47;;;18.80;56.10;;;;;;10467514;28;20057;-29
2022/12/02 15:07:19;;;;;;;9.48;4.45;;;18.80;55.90;;;;;;10490369;28;20132;-27
2022/12/02 15:12:20;;;;;;;9.98;4.57;;;18.80;56.10;;;;;;10472979;28;20432;-30
2022/12/02 15:17:24;;;;;;;12.05;5.28;;;18.80;56.00;;;;;;10480274;28;20668;-33
2022/12/02 15:22:27;;;;;;;11.40;5.13;;;18.70;55.90;;;;;;10470021;28;20050;-29
2022/12/02 15:27:29;;;;;;;16.02;8.30;;;18.60;56.10;;;;;;10475649;28;20071;-32
2022/12/02 15:32:33;;;;;;;13.85;5.88;;;18.60;56.80;;;;;;10480008;28;20142;-30
2022/12/02 15:37:35;;;;;;;8.68;4.97;;;18.60;56.20;;;;;;10472487;28;20371;-32
2022/12/02 15:42:36;;;;;;;10.27;4.53;;;18.70;56.10;;;;;;10458881;28;20076;-31
2022/12/02 15:47:40;;;;;;;14.02;4.88;;;18.60;56.10;;;;;;10485227;28;20118;-30
2022/12/02 15:52:42;;;;;;;9.93;4.75;;;18.50;56.40;;;;;;10475200;28;20063;-32
2022/12/02 15:57:43;;;;;;;9.18;4.10;;;18.70;56.10;;;;;;10478564;28;20048;-30
2022/12/02 16:02:47;;;;;;;6.97;4.33;;;18.80;56.10;;;;;;10493746;28;20672;-31
2022/12/02 16:07:48;;;;;;;12.18;4.20;;;18.70;56.20;;;;;;10484812;28;20536;-31
2022/12/02 16:12:50;;;;;;;11.45;4.28;;;18.90;55.80;;;;;;10490117;28;20153;-32
2022/12/02 16:17:53;;;;;;;12.38;4.05;;;18.80;56.00;;;;;;10491022;28;20563;-36
2022/12/02 16:22:55;;;;;;;6.95;3.80;;;18.80;55.80;;;;;;10490409;28;20054;-32
2022/12/02 16:27:57;;;;;;;6.50;4.05;;;18.80;56.10;;;;;;10481114;28;20048;-31
2022/12/02 16:33:00;;;;;;;10.05;3.75;;;18.90;56.00;;;;;;10492169;28;20052;-30
2022/12/02 16:38:02;;;;;;;10.57;3.85;;;18.80;56.00;;;;;;10492746;28;20049;-30
2022/12/02 16:43:04;;;;;;;8.63;3.22;;;18.90;55.80;;;;;;10495063;28;20052;-32
2022/12/02 16:48:08;;;;;;;6.18;3.72;;;19.00;55.90;;;;;;10491180;28;20101;-31
2022/12/02 16:53:10;;;;;;;7.00;3.83;;;19.00;55.20;;;;;;10490855;28;20413;-32
2022/12/02 16:58:12;;;;;;;6.97;3.47;;;18.80;55.20;;;;;;10489285;28;20094;-29
2022/12/02 17:03:15;;;;;;;9.18;4.07;;;18.90;55.70;;;;;;10464780;28;20409;-33
2022/12/02 17:08:17;;;;;;;7.20;4.22;;;18.90;55.80;;;;;;10473219;28;20057;-30
2022/12/02 17:13:20;;;;;;;7.97;3.88;;;19.00;55.60;;;;;;10485287;28;20509;-33
2022/12/02 17:18:23;;;;;;;5.78;3.60;;;18.80;55.80;;;;;;10465221;28;20387;-31
2022/12/02 17:23:25;;;;;;;8.25;4.90;;;18.70;56.00;;;;;;10460551;28;20051;-32
2022/12/02 17:28:26;;;;;;;17.27;7.38;;;18.40;56.10;;;;;;10484205;28;20076;-31
2022/12/02 17:33:30;;;;;;;16.37;5.90;;;18.50;56.40;;;;;;10487057;28;20131;-31
2022/12/02 17:38:31;;;;;;;12.57;6.70;;;18.50;56.60;;;;;;10479813;28;20526;-29
2022/12/02 17:43:33;;;;;;;16.52;6.57;;;18.10;57.30;;;;;;10484938;28;20036;-30
2022/12/02 17:48:36;;;;;;;22.98;8.60;;;18.50;56.70;;;;;;10476619;28;20050;-30
2022/12/02 17:53:39;;;;;;;17.02;8.65;;;18.70;56.40;;;;;;10476137;28;20149;-30
2022/12/02 17:58:40;;;;;;;;;;;18.70;56.30;;;;;;10469345;28;20080;-31
2022/12/02 18:03:44;;;;;;;25.77;9.38;;;18.70;56.40;;;;;;10475612;28;20007;-31
2022/12/02 18:08:45;;;;;;;19.77;9.68;;;18.70;56.90;;;;;;10489962;28;20052;-31
2022/12/02 18:13:47;;;;;;;19.33;8.93;;;18.70;57.00;;;;;;10487020;28;20056;-28
2022/12/02 18:18:51;;;;;;;27.50;11.83;;;18.70;57.10;;;;;;10480229;28;20094;-30
2022/12/02 18:23:53;;;;;;;21.13;11.23;;;18.20;57.60;;;;;;10485423;28;20821;-33
2022/12/02 18:28:55;;;;;;;21.35;11.32;;;18.10;58.30;;;;;;10468134;28;20086;-33
2022/12/02 18:33:58;;;;;;;21.35;10.45;;;18.40;57.70;;;;;;10484236;28;20048;-34
2022/12/02 18:39:00;;;;;;;23.38;10.73;;;18.40;57.70;;;;;;10475739;28;20485;-32
2022/12/02 18:44:02;;;;;;;19.42;10.20;;;18.40;57.80;;;;;;10480633;28;20561;-31
2022/12/02 18:49:05;;;;;;;25.00;10.88;;;18.30;58.00;;;;;;10480814;28;20095;-35
2022/12/02 18:54:07;;;;;;;20.42;10.32;;;18.20;57.80;;;;;;10471595;28;20080;-33
2022/12/02 18:59:09;;;;;;;19.83;10.23;;;18.10;58.40;;;;;;10476266;28;20164;-32
2022/12/02 19:04:12;;;;;;;25.63;14.88;;;18.30;58.00;;;;;;10473868;28;20048;-30
2022/12/02 19:09:14;;;;;;;23.02;12.02;;;18.10;58.30;;;;;;10484459;28;20101;-32
2022/12/02 19:14:15;;;;;;;23.13;13.60;;;18.20;58.00;;;;;;10469475;28;20131;-30
2022/12/02 19:19:19;;;;;;;24.00;14.00;;;18.20;57.90;;;;;;10463433;28;20044;-31
2022/12/02 19:24:20;;;;;;;25.92;14.32;;;18.40;57.60;;;;;;10464014;28;20080;-30
2022/12/02 19:29:22;;;;;;;20.75;11.60;;;18.20;57.90;;;;;;10490739;28;20477;-32
2022/12/02 19:34:25;;;;;;;16.02;8.68;;;18.50;57.50;;;;;;10482772;28;20101;-31
2022/12/02 19:39:28;;;;;;;17.33;8.77;;;18.60;57.90;;;;;;10478298;28;20040;-31
2022/12/02 19:44:29;;;;;;;16.17;9.02;;;18.60;57.20;;;;;;10484026;28;20045;-31
2022/12/02 19:49:33;;;;;;;17.48;8.82;;;18.60;57.10;;;;;;10466873;28;20103;-30
2022/12/02 19:54:34;;;;;;;16.33;8.30;;;18.70;57.10;;;;;;10466235;28;20212;-31
2022/12/02 19:59:36;;;;;;;15.13;8.35;;;18.70;57.00;;;;;;10469845;28;20078;-30
2022/12/02 20:04:39;;;;;;;16.27;9.07;;;18.70;57.10;;;;;;10476437;28;20076;-31
2022/12/02 20:09:41;;;;;;;14.18;8.43;;;18.70;57.00;;;;;;10476255;28;20052;-30
2022/12/02 20:14:43;;;;;;;18.50;9.40;;;18.70;56.90;;;;;;10469534;28;20052;-29
2022/12/02 20:19:46;;;;;;;20.42;8.90;;;18.80;56.90;;;;;;10475623;28;20129;-30
2022/12/02 20:24:49;;;;;;;18.30;9.57;;;18.80;56.90;;;;;;10469054;28;20136;-32
2022/12/02 20:29:50;;;;;;;;;;;18.80;56.90;;;;;;10490299;28;20057;-32
2022/12/02 20:34:54;;;;;;;13.45;8.05;;;18.70;56.80;;;;;;10490550;28;19920;-28
2022/12/02 20:39:56;;;;;;;19.92;8.82;;;18.70;56.70;;;;;;10480031;28;20055;-32
2022/12/02 20:44:58;;;;;;;12.95;8.18;;;18.70;56.60;;;;;;10484562;28;20540;-37
2022/12/02 20:50:01;;;;;;;;;;;18.70;56.60;;;;;;10481319;28;20049;-31
2022/12/02 20:55:05;;;;;;;15.52;8.60;;;18.70;56.70;;;;;;10475151;28;20017;-29
2022/12/02 21:00:08;;;;;;;17.77;7.80;;;18.70;56.60;;;;;;10480753;28;20044;-32
2022/12/02 21:05:11;;;;;;;17.77;9.25;;;18.70;56.60;;;;;;10477543;28;20119;-33
2022/12/02 21:10:14;;;;;;;17.65;8.65;;;18.70;56.60;;;;;;10490844;28;20191;-31
2022/12/02 21:15:16;;;;;;;19.92;7.80;;;18.70;56.50;;;;;;10481349;28;20117;-30
2022/12/02 21:20:19;;;;;;;15.20;7.68;;;18.70;56.50;;;;;;10484487;28;20059;-33
2022/12/02 21:25:21;;;;;;;15.00;8.18;;;18.70;56.50;;;;;;10476633;28;20056;-29
2022/12/02 21:30:23;;;;;;;13.75;7.63;;;18.70;56.50;;;;;;10473611;28;20045;-32
2022/12/02 21:35:26;;;;;;;17.48;7.80;;;18.60;56.40;;;;;;10485211;28;20118;-31
2022/12/02 21:40:28;;;;;;;13.27;7.40;;;18.60;56.40;;;;;;10483075;28;20102;-31
2022/12/02 21:45:30;;;;;;;12.82;7.43;;;18.60;56.50;;;;;;10482729;28;20461;-29
2022/12/02 21:50:33;;;;;;;11.63;8.07;;;18.60;56.50;;;;;;10476927;28;20061;-31
2022/12/02 21:55:35;;;;;;;14.38;8.55;;;18.50;56.60;;;;;;10477072;28;20048;-34
2022/12/02 22:00:37;;;;;;;14.88;6.97;;;18.50;56.60;;;;;;10474151;28;20044;-32
2022/12/02 22:05:40;;;;;;;13.70;7.55;;;18.50;56.70;;;;;;10489064;28;20114;-30
2022/12/02 22:10:42;;;;;;;15.70;8.43;;;18.50;56.70;;;;;;10490401;28;20089;-32
2022/12/02 22:15:44;;;;;;;18.45;9.73;;;18.40;56.60;;;;;;10489547;28;20448;-30
2022/12/02 22:20:47;;;;;;;11.05;7.32;;;18.40;56.60;;;;;;10491406;28;20044;-31
2022/12/02 22:25:49;;;;;;;14.88;8.30;;;18.40;56.50;;;;;;10488264;28;20083;-29
2022/12/02 22:30:51;;;;;;;15.82;7.05;;;18.30;56.70;;;;;;10482145;28;20105;-31
2022/12/02 22:35:54;;;;;;;14.15;9.02;;;18.30;56.80;;;;;;10476491;28;20408;-33
2022/12/02 22:40:57;;;;;;;14.63;7.00;;;18.30;56.60;;;;;;10483724;28;20102;-35
2022/12/02 22:45:59;;;;;;;13.20;8.63;;;18.30;56.60;;;;;;10466285;28;20079;-34
2022/12/02 22:51:02;;;;;;;18.90;7.70;;;18.20;56.70;;;;;;10482165;28;20055;-29
2022/12/02 22:56:04;;;;;;;12.48;6.70;;;18.20;56.30;;;;;;10473406;28;20512;-32
2022/12/02 23:01:06;;;;;;;16.45;7.28;;;18.30;56.30;;;;;;10480018;28;20056;-34
2022/12/02 23:06:09;;;;;;;24.90;7.40;;;18.30;56.40;;;;;;10476642;28;20228;-31
2022/12/02 23:11:11;;;;;;;13.43;7.43;;;18.20;56.40;;;;;;10477700;28;20133;-32
2022/12/02 23:16:13;;;;;;;10.38;6.57;;;18.20;56.40;;;;;;10474430;28;20048;-31
2022/12/02 23:21:16;;;;;;;11.75;6.10;;;18.20;56.40;;;;;;10473602;28;20049;-30
2022/12/02 23:26:18;;;;;;;10.68;6.30;;;18.20;56.20;;;;;;10482150;28;20131;-32
2022/12/02 23:31:20;;;;;;;11.52;6.15;;;18.20;56.30;;;;;;10476237;28;20090;-31
2022/12/02 23:36:24;;;;;;;13.27;7.13;;;18.10;56.30;;;;;;10469411;28;20452;-32
2022/12/02 23:41:26;;;;;;;12.27;6.10;;;18.10;56.30;;;;;;10478989;28;20071;-31
2022/12/02 23:46:28;;;;;;;12.88;6.43;;;17.90;56.20;;;;;;10484922;28;20048;-31
2022/12/02 23:51:32;;;;;;;13.82;6.93;;;18.10;56.10;;;;;;10480262;28;20076;-35
2022/12/02 23:56:33;;;;;;;14.65;6.78;;;18.10;56.20;;;;;;10471650;28;20114;-33
